createdAt,value
2023-01-20T00:01:43.390Z,40.93
2023-01-20T00:04:10.227Z,43.80
2023-01-20T00:06:36.963Z,46.33
2023-01-20T00:09:05.046Z,49.72
2023-01-20T00:11:32.603Z,50.40
2023-01-20T00:14:01.224Z,44.55
2023-01-20T00:16:28.795Z,43.83
2023-01-20T00:18:55.934Z,47.25
2023-01-20T00:21:23.242Z,52.28
2023-01-20T00:23:50.495Z,41.03
2023-01-20T00:26:19.796Z,48.47
2023-01-20T00:31:08.498Z,0
2023-01-20T00:33:43.265Z,52.70
2023-01-20T00:36:10.916Z,49.20
2023-01-20T00:38:37.776Z,52.47
2023-01-20T00:41:05.028Z,53.95
2023-01-20T00:43:31.993Z,55.10
2023-01-20T00:45:58.980Z,57.03
2023-01-20T00:48:25.791Z,58.13
2023-01-20T00:50:52.644Z,58.50
2023-01-20T00:56:06.922Z,64.47
2023-01-20T01:01:01.035Z,55.67
2023-01-20T01:03:28.215Z,50.08
2023-01-20T01:06:04.744Z,53.88
2023-01-20T01:08:31.540Z,54.73
2023-01-20T01:10:58.313Z,57.78
2023-01-20T01:13:25.095Z,63.03
2023-01-20T01:15:51.936Z,54.45
2023-01-20T01:18:18.831Z,57.07
2023-01-20T01:23:13.063Z,55.15
2023-01-20T01:25:39.868Z,57.37
2023-01-20T01:30:53.481Z,56.53
2023-01-20T01:36:22.705Z,57.88
2023-01-20T01:38:58.940Z,57.00
2023-01-20T01:41:26.281Z,58.75
2023-01-20T01:44:00.681Z,57.75
2023-01-20T01:46:27.503Z,55.58
2023-01-20T01:48:54.802Z,53.42
2023-01-20T01:51:25.613Z,65.10
2023-01-20T01:53:59.428Z,63.25
2023-01-20T01:59:16.165Z,62.38
2023-01-20T02:04:34.968Z,62.70
2023-01-20T02:07:08.029Z,65.17
2023-01-20T02:09:35.661Z,63.97
2023-01-20T02:12:06.473Z,65.32
2023-01-20T02:14:53.798Z,59.45
2023-01-20T02:17:20.515Z,66.65
2023-01-20T02:20:08.956Z,62.80
2023-01-20T02:22:47.403Z,64.53
2023-01-20T02:25:17.380Z,64.03
2023-01-20T02:27:59.384Z,62.70
2023-01-20T02:30:41.395Z,60.95
2023-01-20T02:33:28.322Z,61.53
2023-01-20T02:36:09.945Z,70.22
2023-01-20T02:39:11.558Z,68.90
2023-01-20T02:42:00.163Z,71.32
2023-01-20T02:44:41.618Z,61.92
2023-01-20T02:50:01.842Z,64.32
2023-01-20T02:52:33.941Z,70.53
2023-01-20T02:55:06.500Z,58.67
2023-01-20T02:57:52.142Z,59.33
2023-01-20T03:03:39.560Z,59.80
2023-01-20T03:06:11.078Z,62.70
2023-01-20T03:08:40.325Z,68.68
2023-01-20T03:11:09.135Z,63.70
2023-01-20T03:13:58.077Z,66.32
2023-01-20T03:16:26.601Z,66.90
2023-01-20T03:18:55.253Z,65.00
2023-01-20T03:21:22.854Z,63.97
2023-01-20T03:23:53.244Z,69.70
2023-01-20T03:26:21.921Z,63.35
2023-01-20T03:28:49.084Z,60.03
2023-01-20T03:34:15.500Z,68.75
2023-01-20T03:39:31.436Z,68.05
2023-01-20T03:42:12.738Z,67.40
2023-01-20T03:48:02.762Z,60.60
2023-01-20T03:50:45.263Z,64.15
2023-01-20T03:52:51.141Z,0
2023-01-20T03:53:30.737Z,66.87
2023-01-20T03:58:55.884Z,60.83
2023-01-20T04:01:29.074Z,64.70
2023-01-20T04:03:57.149Z,61.55
2023-01-20T04:06:27.390Z,65.85
2023-01-20T04:09:00.459Z,71.68
2023-01-20T04:11:27.284Z,62.47
2023-01-20T04:13:54.833Z,62.83
2023-01-20T04:16:23.324Z,64.70
2023-01-20T04:18:51.937Z,66.57
2023-01-20T04:22:14.466Z,57.70
2023-01-20T04:24:49.041Z,62.38
2023-01-20T04:27:15.809Z,58.95
2023-01-20T04:29:42.553Z,63.83
2023-01-20T04:32:11.790Z,54.60
2023-01-20T04:34:39.122Z,56.50
2023-01-20T04:37:05.971Z,53.75
2023-01-20T04:39:32.702Z,54.58
2023-01-20T04:41:59.568Z,56.67
2023-01-20T04:44:26.391Z,49.35
2023-01-20T04:46:57.875Z,52.92
2023-01-20T04:49:24.843Z,59.43
2023-01-20T04:51:51.582Z,52.50
2023-01-20T04:54:18.424Z,56.85
2023-01-20T04:56:45.183Z,53.25
2023-01-20T04:59:12.620Z,56.40
2023-01-20T05:01:39.490Z,50.08
2023-01-20T05:04:06.277Z,55.15
2023-01-20T05:06:33.054Z,54.30
2023-01-20T05:11:46.545Z,51.38
2023-01-20T05:17:00.482Z,49.70
2023-01-20T05:22:13.964Z,46.05
2023-01-20T05:24:40.757Z,46.55
2023-01-20T05:27:07.503Z,42.63
2023-01-20T05:29:34.346Z,46.58
2023-01-20T05:32:01.148Z,46.65
2023-01-20T05:34:27.920Z,43.03
2023-01-20T05:36:54.972Z,43.47
2023-01-20T05:39:21.970Z,45.65
2023-01-20T05:41:48.771Z,43.25
2023-01-20T05:44:16.490Z,42.40
2023-01-20T05:46:43.291Z,42.53
2023-01-20T05:49:13.230Z,51.70
2023-01-20T05:51:40.050Z,53.88
2023-01-20T05:54:06.851Z,44.53
2023-01-20T05:56:33.703Z,45.80
2023-01-20T05:59:00.526Z,39.70
2023-01-20T06:01:27.724Z,41.45
2023-01-20T06:03:54.562Z,41.88
2023-01-20T06:06:21.396Z,37.10
2023-01-20T06:08:48.210Z,41.60
2023-01-20T06:14:01.619Z,42.40
2023-01-20T06:19:15.463Z,35.10
2023-01-20T06:24:28.873Z,42.35
2023-01-20T06:26:55.672Z,38.20
2023-01-20T06:29:22.423Z,45.10
2023-01-20T06:31:49.190Z,39.75
2023-01-20T06:34:16.033Z,38.97
2023-01-20T06:36:42.783Z,44.55
2023-01-20T06:39:09.580Z,38.75
2023-01-20T06:41:36.346Z,40.67
2023-01-20T06:44:03.179Z,37.75
2023-01-20T06:46:29.977Z,36.80
2023-01-20T06:48:56.756Z,42.08
2023-01-20T06:51:23.575Z,37.55
2023-01-20T06:53:50.348Z,35.85
2023-01-20T06:56:17.096Z,35.30
2023-01-20T06:58:43.892Z,33.50
2023-01-20T07:01:12.256Z,32.88
2023-01-20T07:03:41.304Z,35.42
2023-01-20T07:06:17.112Z,34.72
2023-01-20T07:08:45.065Z,33.33
2023-01-20T07:11:11.918Z,37.75
2023-01-20T07:13:38.705Z,32.40
2023-01-20T07:16:05.603Z,31.55
2023-01-20T07:18:32.397Z,32.70
2023-01-20T07:20:59.204Z,30.63
2023-01-20T07:23:27.559Z,32.35
2023-01-20T07:25:58.643Z,32.17
2023-01-20T07:28:25.525Z,30.40
2023-01-20T07:30:52.433Z,31.33
2023-01-20T07:33:19.289Z,35.42
2023-01-20T07:35:50.733Z,30.83
2023-01-20T07:38:17.495Z,30.65
2023-01-20T07:40:44.229Z,30.00
2023-01-20T07:43:11.032Z,31.73
2023-01-20T07:45:37.871Z,33.05
2023-01-20T07:48:04.776Z,32.28
2023-01-20T07:50:31.568Z,33.92
2023-01-20T07:52:58.370Z,30.55
2023-01-20T07:55:25.297Z,43.45
2023-01-20T07:57:52.072Z,40.05
2023-01-20T08:00:19.702Z,29.15
2023-01-20T08:02:46.501Z,28.95
2023-01-20T08:08:00.290Z,27.77
2023-01-20T08:13:13.732Z,25.85
2023-01-20T08:15:40.467Z,25.98
2023-01-20T08:18:07.240Z,26.52
2023-01-20T08:20:34.031Z,26.58
2023-01-20T08:23:00.790Z,26.20
2023-01-20T08:25:27.588Z,26.80
2023-01-20T08:27:54.368Z,23.33
2023-01-20T08:30:21.255Z,25.75
2023-01-20T08:32:48.004Z,25.55
2023-01-20T08:35:15.030Z,24.80
2023-01-20T08:37:42.134Z,26.27
2023-01-20T08:42:56.871Z,26.05
2023-01-20T08:48:10.739Z,27.40
2023-01-20T08:50:37.553Z,28.88
2023-01-20T08:53:04.347Z,26.95
2023-01-20T08:55:31.128Z,25.98
2023-01-20T08:57:57.896Z,28.33
2023-01-20T09:00:24.950Z,24.20
2023-01-20T09:02:51.857Z,26.73
2023-01-20T09:05:18.796Z,31.30
2023-01-20T09:07:45.551Z,27.45
2023-01-20T09:10:12.950Z,28.52
2023-01-20T09:12:39.676Z,28.58
2023-01-20T09:15:06.947Z,25.20
2023-01-20T09:17:35.334Z,28.35
2023-01-20T09:20:02.267Z,26.75
2023-01-20T09:25:16.026Z,24.60
2023-01-20T09:30:29.785Z,23.63
2023-01-20T09:32:56.526Z,26.13
2023-01-20T09:35:23.492Z,28.75
2023-01-20T09:37:50.285Z,24.83
2023-01-20T09:40:22.180Z,30.52
2023-01-20T09:43:08.578Z,25.80
2023-01-20T09:45:52.886Z,25.92
2023-01-20T09:48:25.580Z,28.50
2023-01-20T09:50:59.176Z,25.23
2023-01-20T09:53:47.305Z,31.10
2023-01-20T09:59:12.392Z,24.92
2023-01-20T10:04:38.845Z,23.85
2023-01-20T10:07:08.729Z,24.20
2023-01-20T10:09:09.284Z,0
2023-01-20T10:09:49.920Z,25.92
2023-01-20T10:12:56.044Z,27.83
2023-01-20T10:15:27.998Z,28.42
2023-01-20T10:18:15.067Z,26.33
2023-01-20T10:24:22.342Z,26.42
2023-01-20T10:26:59.174Z,27.35
2023-01-20T10:29:37.597Z,25.52
2023-01-20T10:32:21.740Z,26.10
2023-01-20T10:34:52.458Z,29.05
2023-01-20T10:37:19.268Z,25.48
2023-01-20T10:42:57.433Z,25.13
2023-01-20T10:46:05.499Z,28.37
2023-01-20T10:48:40.950Z,28.98
2023-01-20T10:51:19.021Z,25.23
2023-01-20T10:54:17.551Z,26.48
2023-01-20T10:59:45.365Z,24.05
2023-01-20T11:02:15.419Z,0
2023-01-20T11:02:31.798Z,24.58
2023-01-20T11:04:59.984Z,25.50
2023-01-20T11:07:28.949Z,27.43
2023-01-20T11:09:55.888Z,25.75
2023-01-20T11:12:27.576Z,22.85
2023-01-20T11:17:42.637Z,24.10
2023-01-20T11:23:05.915Z,28.80
2023-01-20T11:28:20.421Z,24.85
2023-01-20T11:33:55.653Z,26.70
2023-01-20T11:36:22.796Z,26.40
2023-01-20T11:38:51.250Z,25.77
2023-01-20T11:43:52.779Z,27.27
2023-01-20T11:46:23.337Z,26.92
2023-01-20T11:51:24.949Z,25.17
2023-01-20T11:57:05.205Z,24.98
2023-01-20T11:59:34.599Z,25.23
2023-01-20T12:02:21.582Z,30.25
2023-01-20T12:05:17.508Z,27.77
2023-01-20T12:10:39.714Z,27.85
2023-01-20T12:13:28.904Z,25.50
2023-01-20T12:15:59.734Z,26.37
2023-01-20T12:19:01.123Z,25.88
2023-01-20T12:27:35.136Z,29.75
2023-01-20T12:30:15.896Z,28.85
2023-01-20T12:32:42.896Z,32.10
2023-01-20T12:35:14.867Z,28.08
2023-01-20T12:37:52.236Z,26.05
2023-01-20T12:40:25.120Z,25.52
2023-01-20T12:43:03.544Z,27.33
2023-01-20T12:48:40.493Z,25.60
2023-01-20T12:51:25.576Z,29.40
2023-01-20T12:54:10.637Z,27.08
2023-01-20T12:56:48.555Z,29.40
2023-01-20T12:59:37.000Z,28.73
2023-01-20T13:02:22.289Z,25.88
2023-01-20T13:07:47.814Z,28.07
2023-01-20T13:10:27.063Z,28.88
2023-01-20T13:13:08.885Z,31.05
2023-01-20T13:15:59.576Z,27.13
2023-01-20T13:19:04.844Z,31.40
2023-01-20T13:21:33.293Z,27.17
2023-01-20T13:22:10.177Z,0
2023-01-20T13:24:05.777Z,26.23
2023-01-20T13:26:33.567Z,29.45
2023-01-20T13:29:00.333Z,31.00
2023-01-20T13:34:33.507Z,30.38
2023-01-20T13:39:51.204Z,41.77
2023-01-20T13:42:36.874Z,32.60
2023-01-20T13:45:12.495Z,29.13
2023-01-20T13:47:58.060Z,28.10
2023-01-20T13:50:35.880Z,30.35
2023-01-20T13:53:05.465Z,31.13
2023-01-20T13:55:41.131Z,27.25
2023-01-20T13:58:28.190Z,29.08
2023-01-20T14:00:56.161Z,29.67
2023-01-20T14:06:20.757Z,28.98
2023-01-20T14:11:49.934Z,32.00
2023-01-20T14:14:20.315Z,30.42
2023-01-20T14:15:11.891Z,0
2023-01-20T14:16:47.622Z,30.43
2023-01-20T14:22:23.487Z,28.83
2023-01-20T14:24:52.039Z,32.43
2023-01-20T14:27:23.642Z,32.05
2023-01-20T14:29:52.907Z,32.43
2023-01-20T14:32:34.582Z,30.23
2023-01-20T14:35:04.396Z,33.35
2023-01-20T14:37:37.837Z,33.63
2023-01-20T14:40:28.287Z,34.47
2023-01-20T14:43:12.853Z,31.10
2023-01-20T14:45:45.270Z,30.75
2023-01-20T14:48:24.803Z,31.67
2023-01-20T14:50:59.893Z,32.00
2023-01-20T14:56:21.997Z,34.22
2023-01-20T14:58:50.489Z,33.95
2023-01-20T15:01:26.344Z,35.30
2023-01-20T15:03:14.544Z,0
2023-01-20T15:04:01.317Z,31.65
2023-01-20T15:09:06.214Z,33.05
2023-01-20T15:11:34.667Z,31.50
2023-01-20T15:14:01.413Z,32.90
2023-01-20T15:16:37.020Z,36.05
2023-01-20T15:22:18.598Z,33.30
2023-01-20T15:24:46.446Z,34.83
2023-01-20T15:27:27.616Z,34.55
2023-01-20T15:30:14.151Z,40.10
2023-01-20T15:32:41.081Z,35.00
2023-01-20T15:37:58.592Z,32.50
2023-01-20T15:43:19.141Z,33.60
2023-01-20T15:48:21.501Z,31.63
2023-01-20T15:50:49.028Z,37.50
2023-01-20T15:53:16.073Z,34.35
2023-01-20T15:55:50.876Z,35.80
2023-01-20T15:58:29.842Z,39.90
2023-01-20T16:00:58.015Z,45.90
2023-01-20T16:03:26.078Z,36.53
2023-01-20T16:05:54.652Z,42.27
2023-01-20T16:08:23.817Z,35.55
2023-01-20T16:10:50.940Z,39.45
2023-01-20T16:16:04.917Z,42.15
2023-01-20T16:21:19.661Z,40.30
2023-01-20T16:26:34.684Z,36.03
2023-01-20T16:31:48.356Z,35.20
2023-01-20T16:34:15.129Z,38.03
2023-01-20T16:36:41.901Z,34.97
2023-01-20T16:39:10.978Z,33.33
2023-01-20T16:41:37.918Z,32.17
2023-01-20T16:44:04.932Z,29.77
2023-01-20T16:46:32.340Z,54.97
2023-01-20T16:48:59.530Z,38.17
2023-01-20T16:51:27.722Z,29.52
2023-01-20T16:53:55.581Z,28.25
2023-01-20T16:56:24.823Z,33.00
2023-01-20T16:58:55.046Z,29.88
2023-01-20T17:01:22.219Z,30.33
2023-01-20T17:03:50.489Z,28.40
2023-01-20T17:06:20.212Z,70.07
2023-01-20T17:08:49.005Z,54.45
2023-01-20T17:14:09.622Z,31.75
2023-01-20T17:19:24.578Z,28.13
2023-01-20T17:21:51.559Z,29.42
2023-01-20T17:24:18.337Z,31.20
2023-01-20T17:26:45.100Z,27.05
2023-01-20T17:29:11.917Z,30.07
2023-01-20T17:31:38.715Z,27.63
2023-01-20T17:34:06.713Z,29.67
2023-01-20T17:36:33.995Z,25.80
2023-01-20T17:39:01.955Z,28.60
2023-01-20T17:41:28.901Z,27.98
2023-01-20T17:43:55.681Z,26.65
2023-01-20T17:46:29.513Z,26.08
2023-01-20T17:48:57.643Z,27.02
2023-01-20T17:51:26.594Z,24.40
2023-01-20T17:53:54.171Z,25.35
2023-01-20T17:56:22.621Z,28.55
2023-01-20T17:58:50.539Z,29.65
2023-01-20T18:01:21.882Z,23.70
2023-01-20T18:03:51.332Z,28.10
2023-01-20T18:06:20.077Z,26.48
2023-01-20T18:08:52.387Z,29.52
2023-01-20T18:11:20.190Z,33.97
2023-01-20T18:13:47.786Z,28.88
2023-01-20T18:16:17.286Z,27.67
2023-01-20T18:18:45.738Z,26.67
2023-01-20T18:24:07.250Z,28.98
2023-01-20T18:29:23.007Z,30.83
2023-01-20T18:31:49.921Z,32.90
2023-01-20T18:34:16.796Z,28.38
2023-01-20T18:36:45.509Z,29.15
2023-01-20T18:39:23.930Z,30.90
2023-01-20T18:41:51.732Z,29.65
2023-01-20T18:44:19.292Z,31.77
2023-01-20T18:49:33.083Z,34.22
2023-01-20T18:54:46.982Z,32.60
2023-01-20T18:57:13.737Z,31.50
2023-01-20T18:59:40.510Z,35.53
2023-01-20T19:02:09.603Z,34.10
2023-01-20T19:04:36.414Z,31.60
2023-01-20T19:07:03.232Z,33.53
2023-01-20T19:09:29.992Z,39.28
2023-01-20T19:11:56.762Z,33.72
2023-01-20T19:14:23.519Z,32.35
2023-01-20T19:16:50.279Z,32.70
2023-01-20T19:19:17.519Z,32.30
2023-01-20T19:21:44.281Z,33.33
2023-01-20T19:24:17.681Z,31.70
2023-01-20T19:26:44.417Z,33.33
2023-01-20T19:29:14.000Z,32.85
2023-01-20T19:31:40.808Z,34.23
2023-01-20T19:36:55.363Z,32.83
2023-01-20T19:39:22.109Z,30.58
2023-01-20T19:41:48.848Z,33.08
2023-01-20T19:44:15.614Z,35.58
2023-01-20T19:46:42.586Z,33.70
2023-01-20T19:46:52.385Z,0
2023-01-20T19:49:10.815Z,33.85
2023-01-20T19:51:37.987Z,34.55
2023-01-20T19:54:05.484Z,33.55
2023-01-20T19:56:34.843Z,35.95
2023-01-20T19:59:01.728Z,38.05
2023-01-20T20:01:33.812Z,33.83
2023-01-20T20:04:08.904Z,33.43
2023-01-20T20:06:48.279Z,40.20
2023-01-20T20:09:20.452Z,39.78
2023-01-20T20:11:48.498Z,34.35
2023-01-20T20:14:17.776Z,39.63
2023-01-20T20:16:44.590Z,37.08
2023-01-20T20:19:14.516Z,37.28
2023-01-20T20:21:41.654Z,38.15
2023-01-20T20:24:11.493Z,40.53
2023-01-20T20:26:39.206Z,37.83
2023-01-20T20:31:54.064Z,36.53
2023-01-20T20:34:20.853Z,40.78
2023-01-20T20:36:48.103Z,38.30
2023-01-20T20:39:16.989Z,49.00
2023-01-20T20:44:31.181Z,41.00
2023-01-20T20:46:57.942Z,38.55
2023-01-20T20:49:24.721Z,36.45
2023-01-20T20:51:51.481Z,35.90
2023-01-20T20:54:19.194Z,37.63
2023-01-20T20:56:46.105Z,42.05
2023-01-20T20:59:12.925Z,39.43
2023-01-20T21:00:01.435Z,0
2023-01-20T21:01:39.766Z,43.70
2023-01-20T21:04:06.560Z,38.75
2023-01-20T21:06:33.851Z,37.80
2023-01-20T21:09:00.696Z,40.83
2023-01-20T21:11:28.521Z,37.50
2023-01-20T21:16:42.098Z,38.85
2023-01-20T21:21:55.528Z,38.17
2023-01-20T21:24:22.352Z,36.78
2023-01-20T21:26:49.076Z,39.35
2023-01-20T21:29:15.849Z,46.10
2023-01-20T21:31:42.712Z,39.15
2023-01-20T21:34:14.539Z,35.58
2023-01-20T21:36:41.594Z,35.15
2023-01-20T21:42:04.463Z,37.22
2023-01-20T21:47:18.194Z,33.88
2023-01-20T21:49:44.967Z,35.00
2023-01-20T21:52:17.344Z,33.20
2023-01-20T21:54:44.119Z,33.45
2023-01-20T21:57:10.877Z,36.65
2023-01-20T21:59:38.015Z,37.60
2023-01-20T22:02:05.047Z,37.90
2023-01-20T22:04:32.547Z,32.47
2023-01-20T22:06:59.523Z,38.17
2023-01-20T22:09:26.352Z,39.47
2023-01-20T22:11:53.112Z,38.03
2023-01-20T22:14:19.859Z,38.78
2023-01-20T22:16:46.609Z,42.42
2023-01-20T22:19:14.003Z,41.58
2023-01-20T22:21:41.298Z,41.40
2023-01-20T22:24:08.588Z,40.95
2023-01-20T22:26:35.405Z,40.33
2023-01-20T22:29:02.253Z,41.20
2023-01-20T22:31:29.082Z,40.05
2023-01-20T22:33:58.448Z,38.55
2023-01-20T22:36:25.621Z,41.83
2023-01-20T22:38:53.794Z,37.63
2023-01-20T22:41:21.627Z,39.00
2023-01-20T22:43:50.586Z,39.70
2023-01-20T22:46:20.060Z,35.42
2023-01-20T22:48:47.210Z,41.08
2023-01-20T22:51:17.063Z,41.35
2023-01-20T22:53:44.413Z,38.60
2023-01-20T22:56:16.678Z,37.95
2023-01-20T22:58:43.861Z,38.50
2023-01-20T23:01:14.507Z,42.72
2023-01-20T23:03:42.122Z,39.35
2023-01-20T23:06:09.620Z,38.25
2023-01-20T23:08:36.845Z,37.38
2023-01-20T23:11:07.737Z,39.30
2023-01-20T23:13:35.567Z,39.92
2023-01-20T23:16:02.911Z,42.42
2023-01-20T23:18:29.661Z,39.88
2023-01-20T23:20:56.743Z,39.53
2023-01-20T23:23:25.193Z,40.27
2023-01-20T23:28:47.431Z,39.22
2023-01-20T23:33:34.775Z,0
2023-01-20T23:34:03.864Z,39.83
2023-01-20T23:36:30.721Z,45.30
2023-01-20T23:41:44.200Z,39.20
2023-01-20T23:46:57.687Z,40.03
2023-01-20T23:49:24.455Z,40.60
2023-01-20T23:51:51.212Z,38.10
2023-01-20T23:54:17.980Z,40.05
2023-01-20T23:56:44.728Z,38.42
2023-01-20T23:59:11.595Z,42.38
